sensor_id;sensor_type;location;lat;lon;timestamp;P1;durP1;ratioP1;P2;durP2;ratioP2
65835;SDS011;52595;51.608;7.216;2023-11-21T00:01:00;31.10;;;13.50;;
65835;SDS011;52595;51.608;7.216;2023-11-21T00:03:29;26.30;;;12.48;;
65835;SDS011;52595;51.608;7.216;2023-11-21T00:05:54;29.48;;;13.60;;
65835;SDS011;52595;51.608;7.216;2023-11-21T00:08:20;28.83;;;14.15;;
65835;SDS011;52595;51.608;7.216;2023-11-21T00:10:45;30.80;;;14.32;;
65835;SDS011;52595;51.608;7.216;2023-11-21T00:13:11;28.70;;;13.32;;
65835;SDS011;52595;51.608;7.216;2023-11-21T00:15:37;25.60;;;12.48;;
65835;SDS011;52595;51.608;7.216;2023-11-21T00:18:03;25.10;;;11.65;;
65835;SDS011;52595;51.608;7.216;2023-11-21T00:20:28;20.83;;;11.88;;
65835;SDS011;52595;51.608;7.216;2023-11-21T00:22:54;24.90;;;11.93;;
65835;SDS011;52595;51.608;7.216;2023-11-21T00:25:19;27.25;;;12.82;;
65835;SDS011;52595;51.608;7.216;2023-11-21T00:27:45;26.88;;;12.80;;
65835;SDS011;52595;51.608;7.216;2023-11-21T00:30:10;26.38;;;12.77;;
65835;SDS011;52595;51.608;7.216;2023-11-21T00:32:36;26.92;;;12.73;;
65835;SDS011;52595;51.608;7.216;2023-11-21T00:35:03;32.00;;;13.02;;
65835;SDS011;52595;51.608;7.216;2023-11-21T00:37:28;25.20;;;12.60;;
65835;SDS011;52595;51.608;7.216;2023-11-21T00:39:54;25.75;;;12.55;;
65835;SDS011;52595;51.608;7.216;2023-11-21T00:42:19;20.10;;;11.80;;
65835;SDS011;52595;51.608;7.216;2023-11-21T00:44:46;27.00;;;13.10;;
65835;SDS011;52595;51.608;7.216;2023-11-21T00:47:12;28.33;;;13.63;;
65835;SDS011;52595;51.608;7.216;2023-11-21T00:49:37;23.58;;;12.55;;
65835;SDS011;52595;51.608;7.216;2023-11-21T00:52:04;24.95;;;12.55;;
65835;SDS011;52595;51.608;7.216;2023-11-21T00:54:30;24.95;;;12.48;;
65835;SDS011;52595;51.608;7.216;2023-11-21T00:56:55;25.02;;;12.45;;
65835;SDS011;52595;51.608;7.216;2023-11-21T00:59:21;26.23;;;12.10;;
65835;SDS011;52595;51.608;7.216;2023-11-21T01:01:48;24.20;;;13.00;;
65835;SDS011;52595;51.608;7.216;2023-11-21T01:04:13;27.15;;;12.32;;
65835;SDS011;52595;51.608;7.216;2023-11-21T01:06:38;22.42;;;12.60;;
65835;SDS011;52595;51.608;7.216;2023-11-21T01:09:04;26.83;;;12.52;;
65835;SDS011;52595;51.608;7.216;2023-11-21T01:11:34;23.85;;;12.88;;
65835;SDS011;52595;51.608;7.216;2023-11-21T01:14:01;24.40;;;12.32;;
65835;SDS011;52595;51.608;7.216;2023-11-21T01:16:28;21.95;;;11.40;;
65835;SDS011;52595;51.608;7.216;2023-11-21T01:18:54;23.50;;;12.10;;
65835;SDS011;52595;51.608;7.216;2023-11-21T01:21:19;22.70;;;11.60;;
65835;SDS011;52595;51.608;7.216;2023-11-21T01:23:45;23.58;;;11.55;;
65835;SDS011;52595;51.608;7.216;2023-11-21T01:26:10;25.10;;;11.25;;
65835;SDS011;52595;51.608;7.216;2023-11-21T01:28:36;26.25;;;12.57;;
65835;SDS011;52595;51.608;7.216;2023-11-21T01:31:02;26.30;;;12.85;;
65835;SDS011;52595;51.608;7.216;2023-11-21T01:33:27;26.27;;;12.63;;
65835;SDS011;52595;51.608;7.216;2023-11-21T01:35:53;26.42;;;12.07;;
65835;SDS011;52595;51.608;7.216;2023-11-21T01:38:19;23.38;;;12.35;;
65835;SDS011;52595;51.608;7.216;2023-11-21T01:40:45;19.60;;;12.07;;
65835;SDS011;52595;51.608;7.216;2023-11-21T01:43:10;24.48;;;12.00;;
65835;SDS011;52595;51.608;7.216;2023-11-21T01:45:36;24.08;;;11.77;;
65835;SDS011;52595;51.608;7.216;2023-11-21T01:48:02;22.73;;;11.30;;
65835;SDS011;52595;51.608;7.216;2023-11-21T01:50:28;23.23;;;11.73;;
65835;SDS011;52595;51.608;7.216;2023-11-21T01:52:54;23.90;;;11.20;;
65835;SDS011;52595;51.608;7.216;2023-11-21T01:55:20;22.90;;;11.50;;
65835;SDS011;52595;51.608;7.216;2023-11-21T01:57:46;24.67;;;12.20;;
65835;SDS011;52595;51.608;7.216;2023-11-21T02:00:12;19.75;;;12.23;;
65835;SDS011;52595;51.608;7.216;2023-11-21T02:02:44;22.00;;;11.43;;
65835;SDS011;52595;51.608;7.216;2023-11-21T02:05:13;21.92;;;12.15;;
65835;SDS011;52595;51.608;7.216;2023-11-21T02:07:40;22.88;;;12.13;;
65835;SDS011;52595;51.608;7.216;2023-11-21T02:10:10;26.03;;;12.83;;
65835;SDS011;52595;51.608;7.216;2023-11-21T02:12:39;23.17;;;12.20;;
65835;SDS011;52595;51.608;7.216;2023-11-21T02:15:05;24.63;;;13.20;;
65835;SDS011;52595;51.608;7.216;2023-11-21T02:17:35;30.60;;;12.98;;
65835;SDS011;52595;51.608;7.216;2023-11-21T02:20:01;26.50;;;12.68;;
65835;SDS011;52595;51.608;7.216;2023-11-21T02:22:28;25.73;;;12.63;;
65835;SDS011;52595;51.608;7.216;2023-11-21T02:24:57;23.38;;;12.48;;
65835;SDS011;52595;51.608;7.216;2023-11-21T02:27:23;22.95;;;12.25;;
65835;SDS011;52595;51.608;7.216;2023-11-21T02:29:49;26.60;;;12.77;;
65835;SDS011;52595;51.608;7.216;2023-11-21T02:32:15;23.50;;;11.77;;
65835;SDS011;52595;51.608;7.216;2023-11-21T02:34:44;24.35;;;11.05;;
65835;SDS011;52595;51.608;7.216;2023-11-21T02:37:09;27.33;;;12.25;;
65835;SDS011;52595;51.608;7.216;2023-11-21T02:39:35;27.92;;;12.45;;
65835;SDS011;52595;51.608;7.216;2023-11-21T02:42:00;21.42;;;11.95;;
65835;SDS011;52595;51.608;7.216;2023-11-21T02:44:26;21.67;;;11.40;;
65835;SDS011;52595;51.608;7.216;2023-11-21T02:46:51;26.23;;;12.07;;
65835;SDS011;52595;51.608;7.216;2023-11-21T02:49:16;24.30;;;11.57;;
65835;SDS011;52595;51.608;7.216;2023-11-21T02:51:42;26.35;;;11.82;;
65835;SDS011;52595;51.608;7.216;2023-11-21T02:54:08;23.02;;;11.55;;
65835;SDS011;52595;51.608;7.216;2023-11-21T02:56:34;23.33;;;12.05;;
65835;SDS011;52595;51.608;7.216;2023-11-21T02:59:00;22.45;;;12.00;;
65835;SDS011;52595;51.608;7.216;2023-11-21T03:01:26;24.40;;;12.55;;
65835;SDS011;52595;51.608;7.216;2023-11-21T03:03:52;25.67;;;12.23;;
65835;SDS011;52595;51.608;7.216;2023-11-21T03:06:21;26.05;;;12.48;;
65835;SDS011;52595;51.608;7.216;2023-11-21T03:08:47;24.02;;;11.63;;
65835;SDS011;52595;51.608;7.216;2023-11-21T03:11:13;22.90;;;11.98;;
65835;SDS011;52595;51.608;7.216;2023-11-21T03:13:42;24.73;;;11.40;;
65835;SDS011;52595;51.608;7.216;2023-11-21T03:16:08;22.10;;;11.20;;
65835;SDS011;52595;51.608;7.216;2023-11-21T03:18:39;23.45;;;12.07;;
65835;SDS011;52595;51.608;7.216;2023-11-21T03:21:05;20.15;;;11.23;;
65835;SDS011;52595;51.608;7.216;2023-11-21T03:23:32;26.63;;;11.43;;
65835;SDS011;52595;51.608;7.216;2023-11-21T03:25:58;23.58;;;11.88;;
65835;SDS011;52595;51.608;7.216;2023-11-21T03:28:24;25.98;;;11.30;;
65835;SDS011;52595;51.608;7.216;2023-11-21T03:30:50;24.00;;;11.10;;
65835;SDS011;52595;51.608;7.216;2023-11-21T03:33:15;22.83;;;11.25;;
65835;SDS011;52595;51.608;7.216;2023-11-21T03:35:41;24.58;;;11.48;;
65835;SDS011;52595;51.608;7.216;2023-11-21T03:38:07;24.05;;;11.57;;
65835;SDS011;52595;51.608;7.216;2023-11-21T03:40:32;24.13;;;10.95;;
65835;SDS011;52595;51.608;7.216;2023-11-21T03:42:58;23.80;;;11.48;;
65835;SDS011;52595;51.608;7.216;2023-11-21T03:45:23;25.48;;;11.68;;
65835;SDS011;52595;51.608;7.216;2023-11-21T03:47:49;23.50;;;11.13;;
65835;SDS011;52595;51.608;7.216;2023-11-21T03:50:15;22.23;;;12.07;;
65835;SDS011;52595;51.608;7.216;2023-11-21T03:52:40;21.90;;;11.18;;
65835;SDS011;52595;51.608;7.216;2023-11-21T03:55:06;22.42;;;11.88;;
65835;SDS011;52595;51.608;7.216;2023-11-21T03:57:32;26.33;;;11.35;;
65835;SDS011;52595;51.608;7.216;2023-11-21T03:59:57;26.48;;;11.68;;
65835;SDS011;52595;51.608;7.216;2023-11-21T04:02:22;20.00;;;11.32;;
65835;SDS011;52595;51.608;7.216;2023-11-21T04:04:50;21.30;;;11.15;;
65835;SDS011;52595;51.608;7.216;2023-11-21T04:07:15;24.77;;;12.23;;
65835;SDS011;52595;51.608;7.216;2023-11-21T04:09:41;22.88;;;11.30;;
65835;SDS011;52595;51.608;7.216;2023-11-21T04:12:07;22.65;;;11.45;;
65835;SDS011;52595;51.608;7.216;2023-11-21T04:14:34;22.98;;;11.20;;
65835;SDS011;52595;51.608;7.216;2023-11-21T04:16:59;25.38;;;10.93;;
65835;SDS011;52595;51.608;7.216;2023-11-21T04:19:24;21.50;;;10.90;;
65835;SDS011;52595;51.608;7.216;2023-11-21T04:21:50;23.15;;;11.20;;
65835;SDS011;52595;51.608;7.216;2023-11-21T04:24:16;24.17;;;11.68;;
65835;SDS011;52595;51.608;7.216;2023-11-21T04:26:41;27.80;;;11.95;;
65835;SDS011;52595;51.608;7.216;2023-11-21T04:29:06;24.48;;;11.82;;
65835;SDS011;52595;51.608;7.216;2023-11-21T04:31:32;22.73;;;11.85;;
65835;SDS011;52595;51.608;7.216;2023-11-21T04:33:57;24.63;;;11.85;;
65835;SDS011;52595;51.608;7.216;2023-11-21T04:36:23;22.38;;;11.50;;
65835;SDS011;52595;51.608;7.216;2023-11-21T04:38:49;22.85;;;11.75;;
65835;SDS011;52595;51.608;7.216;2023-11-21T04:41:14;23.38;;;11.48;;
65835;SDS011;52595;51.608;7.216;2023-11-21T04:43:39;23.73;;;11.95;;
65835;SDS011;52595;51.608;7.216;2023-11-21T04:46:05;23.65;;;12.15;;
65835;SDS011;52595;51.608;7.216;2023-11-21T04:48:31;25.75;;;12.75;;
65835;SDS011;52595;51.608;7.216;2023-11-21T04:50:57;25.40;;;12.90;;
65835;SDS011;52595;51.608;7.216;2023-11-21T04:53:23;26.48;;;12.55;;
65835;SDS011;52595;51.608;7.216;2023-11-21T04:55:48;27.50;;;13.35;;
65835;SDS011;52595;51.608;7.216;2023-11-21T04:58:14;28.60;;;12.98;;
65835;SDS011;52595;51.608;7.216;2023-11-21T05:00:39;32.03;;;13.57;;
65835;SDS011;52595;51.608;7.216;2023-11-21T05:03:06;27.77;;;12.88;;
65835;SDS011;52595;51.608;7.216;2023-11-21T05:05:32;30.90;;;12.48;;
65835;SDS011;52595;51.608;7.216;2023-11-21T05:07:58;23.65;;;12.80;;
65835;SDS011;52595;51.608;7.216;2023-11-21T05:10:24;24.48;;;12.00;;
65835;SDS011;52595;51.608;7.216;2023-11-21T05:12:50;25.33;;;12.35;;
65835;SDS011;52595;51.608;7.216;2023-11-21T05:15:15;24.52;;;12.07;;
65835;SDS011;52595;51.608;7.216;2023-11-21T05:17:45;28.13;;;11.52;;
65835;SDS011;52595;51.608;7.216;2023-11-21T05:20:14;28.58;;;13.85;;
65835;SDS011;52595;51.608;7.216;2023-11-21T05:22:42;27.27;;;13.10;;
65835;SDS011;52595;51.608;7.216;2023-11-21T05:25:08;32.85;;;13.15;;
65835;SDS011;52595;51.608;7.216;2023-11-21T05:27:34;30.33;;;13.98;;
65835;SDS011;52595;51.608;7.216;2023-11-21T05:30:01;30.75;;;14.38;;
65835;SDS011;52595;51.608;7.216;2023-11-21T05:32:30;37.78;;;15.20;;
65835;SDS011;52595;51.608;7.216;2023-11-21T05:34:55;35.67;;;15.88;;
65835;SDS011;52595;51.608;7.216;2023-11-21T05:37:21;34.75;;;15.32;;
65835;SDS011;52595;51.608;7.216;2023-11-21T05:39:48;37.90;;;15.65;;
65835;SDS011;52595;51.608;7.216;2023-11-21T05:42:13;36.00;;;14.73;;
65835;SDS011;52595;51.608;7.216;2023-11-21T05:44:40;36.60;;;16.50;;
65835;SDS011;52595;51.608;7.216;2023-11-21T05:47:07;37.75;;;15.40;;
65835;SDS011;52595;51.608;7.216;2023-11-21T05:49:33;28.42;;;13.65;;
65835;SDS011;52595;51.608;7.216;2023-11-21T05:51:59;32.90;;;14.68;;
65835;SDS011;52595;51.608;7.216;2023-11-21T05:54:25;37.22;;;14.40;;
65835;SDS011;52595;51.608;7.216;2023-11-21T05:56:51;31.05;;;14.52;;
65835;SDS011;52595;51.608;7.216;2023-11-21T05:59:16;34.20;;;15.15;;
65835;SDS011;52595;51.608;7.216;2023-11-21T06:01:42;31.10;;;14.70;;
65835;SDS011;52595;51.608;7.216;2023-11-21T06:04:07;41.40;;;15.48;;
65835;SDS011;52595;51.608;7.216;2023-11-21T06:06:34;33.42;;;15.23;;
65835;SDS011;52595;51.608;7.216;2023-11-21T06:09:00;33.72;;;14.93;;
65835;SDS011;52595;51.608;7.216;2023-11-21T06:11:27;33.83;;;14.80;;
65835;SDS011;52595;51.608;7.216;2023-11-21T06:13:53;34.90;;;15.40;;
65835;SDS011;52595;51.608;7.216;2023-11-21T06:16:18;35.05;;;14.50;;
65835;SDS011;52595;51.608;7.216;2023-11-21T06:18:47;35.47;;;15.77;;
65835;SDS011;52595;51.608;7.216;2023-11-21T06:21:12;35.17;;;15.57;;
65835;SDS011;52595;51.608;7.216;2023-11-21T06:23:38;37.20;;;15.55;;
65835;SDS011;52595;51.608;7.216;2023-11-21T06:26:04;30.90;;;14.40;;
65835;SDS011;52595;51.608;7.216;2023-11-21T06:28:31;34.20;;;14.95;;
65835;SDS011;52595;51.608;7.216;2023-11-21T06:30:57;34.38;;;15.20;;
65835;SDS011;52595;51.608;7.216;2023-11-21T06:33:30;33.47;;;14.07;;
65835;SDS011;52595;51.608;7.216;2023-11-21T06:35:58;28.05;;;14.27;;
65835;SDS011;52595;51.608;7.216;2023-11-21T06:38:24;31.40;;;13.98;;
65835;SDS011;52595;51.608;7.216;2023-11-21T06:40:49;34.75;;;14.63;;
65835;SDS011;52595;51.608;7.216;2023-11-21T06:43:15;34.85;;;14.65;;
65835;SDS011;52595;51.608;7.216;2023-11-21T06:45:40;32.45;;;15.30;;
65835;SDS011;52595;51.608;7.216;2023-11-21T06:48:06;33.88;;;14.93;;
65835;SDS011;52595;51.608;7.216;2023-11-21T06:50:31;30.60;;;14.52;;
65835;SDS011;52595;51.608;7.216;2023-11-21T06:52:57;32.95;;;15.10;;
65835;SDS011;52595;51.608;7.216;2023-11-21T06:55:22;33.55;;;15.43;;
65835;SDS011;52595;51.608;7.216;2023-11-21T06:57:47;33.35;;;14.40;;
65835;SDS011;52595;51.608;7.216;2023-11-21T07:00:13;31.45;;;14.68;;
65835;SDS011;52595;51.608;7.216;2023-11-21T07:02:42;37.75;;;15.15;;
65835;SDS011;52595;51.608;7.216;2023-11-21T07:05:08;30.17;;;13.57;;
65835;SDS011;52595;51.608;7.216;2023-11-21T07:07:33;34.03;;;15.27;;
65835;SDS011;52595;51.608;7.216;2023-11-21T07:10:00;34.05;;;15.55;;
65835;SDS011;52595;51.608;7.216;2023-11-21T07:12:28;40.13;;;15.63;;
65835;SDS011;52595;51.608;7.216;2023-11-21T07:14:55;33.45;;;14.77;;
65835;SDS011;52595;51.608;7.216;2023-11-21T07:17:20;35.97;;;16.33;;
65835;SDS011;52595;51.608;7.216;2023-11-21T07:19:48;35.88;;;15.38;;
65835;SDS011;52595;51.608;7.216;2023-11-21T07:22:13;31.80;;;14.98;;
65835;SDS011;52595;51.608;7.216;2023-11-21T07:24:40;35.13;;;15.45;;
65835;SDS011;52595;51.608;7.216;2023-11-21T07:27:05;30.27;;;14.73;;
65835;SDS011;52595;51.608;7.216;2023-11-21T07:29:31;32.17;;;15.57;;
65835;SDS011;52595;51.608;7.216;2023-11-21T07:31:56;30.92;;;15.70;;
65835;SDS011;52595;51.608;7.216;2023-11-21T07:34:22;34.47;;;15.55;;
65835;SDS011;52595;51.608;7.216;2023-11-21T07:36:47;28.73;;;15.35;;
65835;SDS011;52595;51.608;7.216;2023-11-21T07:39:12;34.67;;;15.45;;
65835;SDS011;52595;51.608;7.216;2023-11-21T07:41:40;30.45;;;15.43;;
65835;SDS011;52595;51.608;7.216;2023-11-21T07:44:10;35.03;;;15.60;;
65835;SDS011;52595;51.608;7.216;2023-11-21T07:46:35;30.75;;;15.15;;
65835;SDS011;52595;51.608;7.216;2023-11-21T07:49:01;34.20;;;15.52;;
65835;SDS011;52595;51.608;7.216;2023-11-21T07:51:26;35.90;;;16.20;;
65835;SDS011;52595;51.608;7.216;2023-11-21T07:53:51;31.85;;;15.63;;
65835;SDS011;52595;51.608;7.216;2023-11-21T07:56:17;42.53;;;17.17;;
65835;SDS011;52595;51.608;7.216;2023-11-21T07:58:43;34.90;;;17.15;;
65835;SDS011;52595;51.608;7.216;2023-11-21T08:01:09;34.65;;;16.58;;
65835;SDS011;52595;51.608;7.216;2023-11-21T08:03:34;39.92;;;17.45;;
65835;SDS011;52595;51.608;7.216;2023-11-21T08:06:00;38.65;;;17.55;;
65835;SDS011;52595;51.608;7.216;2023-11-21T08:08:28;40.70;;;17.30;;
65835;SDS011;52595;51.608;7.216;2023-11-21T08:10:53;43.20;;;18.55;;
65835;SDS011;52595;51.608;7.216;2023-11-21T08:13:22;43.67;;;18.60;;
65835;SDS011;52595;51.608;7.216;2023-11-21T08:15:48;41.75;;;19.08;;
65835;SDS011;52595;51.608;7.216;2023-11-21T08:18:14;43.95;;;19.50;;
65835;SDS011;52595;51.608;7.216;2023-11-21T08:20:40;50.80;;;20.25;;
65835;SDS011;52595;51.608;7.216;2023-11-21T08:23:05;51.05;;;20.45;;
65835;SDS011;52595;51.608;7.216;2023-11-21T08:25:31;46.03;;;20.38;;
65835;SDS011;52595;51.608;7.216;2023-11-21T08:27:58;45.17;;;20.13;;
65835;SDS011;52595;51.608;7.216;2023-11-21T08:30:24;46.92;;;18.83;;
65835;SDS011;52595;51.608;7.216;2023-11-21T08:32:49;42.58;;;18.75;;
65835;SDS011;52595;51.608;7.216;2023-11-21T08:35:17;42.88;;;18.13;;
65835;SDS011;52595;51.608;7.216;2023-11-21T08:37:42;49.83;;;20.23;;
65835;SDS011;52595;51.608;7.216;2023-11-21T08:40:08;49.83;;;19.30;;
65835;SDS011;52595;51.608;7.216;2023-11-21T08:42:41;55.08;;;20.90;;
65835;SDS011;52595;51.608;7.216;2023-11-21T08:45:07;55.78;;;21.05;;
65835;SDS011;52595;51.608;7.216;2023-11-21T08:47:34;57.88;;;20.27;;
65835;SDS011;52595;51.608;7.216;2023-11-21T08:50:00;48.42;;;19.52;;
65835;SDS011;52595;51.608;7.216;2023-11-21T08:52:26;48.45;;;19.73;;
65835;SDS011;52595;51.608;7.216;2023-11-21T08:54:51;46.45;;;19.50;;
65835;SDS011;52595;51.608;7.216;2023-11-21T08:57:21;46.92;;;18.77;;
65835;SDS011;52595;51.608;7.216;2023-11-21T08:59:47;56.35;;;22.40;;
65835;SDS011;52595;51.608;7.216;2023-11-21T09:02:12;48.83;;;19.38;;
65835;SDS011;52595;51.608;7.216;2023-11-21T09:04:38;44.00;;;19.13;;
65835;SDS011;52595;51.608;7.216;2023-11-21T09:07:03;44.50;;;18.95;;
65835;SDS011;52595;51.608;7.216;2023-11-21T09:09:28;42.15;;;18.38;;
65835;SDS011;52595;51.608;7.216;2023-11-21T09:11:55;44.03;;;17.83;;
65835;SDS011;52595;51.608;7.216;2023-11-21T09:14:20;38.85;;;17.90;;
65835;SDS011;52595;51.608;7.216;2023-11-21T09:16:45;40.50;;;18.17;;
65835;SDS011;52595;51.608;7.216;2023-11-21T09:19:12;44.78;;;18.20;;
65835;SDS011;52595;51.608;7.216;2023-11-21T09:21:39;41.35;;;18.52;;
65835;SDS011;52595;51.608;7.216;2023-11-21T09:24:04;41.45;;;18.48;;
65835;SDS011;52595;51.608;7.216;2023-11-21T09:26:30;43.00;;;18.65;;
65835;SDS011;52595;51.608;7.216;2023-11-21T09:28:55;42.10;;;18.15;;
65835;SDS011;52595;51.608;7.216;2023-11-21T09:31:21;42.15;;;19.15;;
65835;SDS011;52595;51.608;7.216;2023-11-21T09:33:47;40.97;;;18.50;;
65835;SDS011;52595;51.608;7.216;2023-11-21T09:36:13;38.70;;;18.30;;
65835;SDS011;52595;51.608;7.216;2023-11-21T09:38:39;38.05;;;18.58;;
65835;SDS011;52595;51.608;7.216;2023-11-21T09:44:00;34.40;;;17.92;;
65835;SDS011;52595;51.608;7.216;2023-11-21T09:46:27;38.88;;;17.83;;
65835;SDS011;52595;51.608;7.216;2023-11-21T09:48:54;39.33;;;18.67;;
65835;SDS011;52595;51.608;7.216;2023-11-21T09:51:23;42.30;;;17.90;;
65835;SDS011;52595;51.608;7.216;2023-11-21T09:53:54;38.40;;;18.35;;
65835;SDS011;52595;51.608;7.216;2023-11-21T09:56:23;41.50;;;18.77;;
65835;SDS011;52595;51.608;7.216;2023-11-21T09:58:52;46.03;;;19.98;;
65835;SDS011;52595;51.608;7.216;2023-11-21T10:01:18;44.92;;;20.65;;
65835;SDS011;52595;51.608;7.216;2023-11-21T10:03:45;47.05;;;21.20;;
65835;SDS011;52595;51.608;7.216;2023-11-21T10:06:12;45.30;;;20.73;;
65835;SDS011;52595;51.608;7.216;2023-11-21T10:08:39;44.20;;;20.60;;
65835;SDS011;52595;51.608;7.216;2023-11-21T10:11:05;46.05;;;20.65;;
65835;SDS011;52595;51.608;7.216;2023-11-21T10:13:33;46.20;;;20.40;;
65835;SDS011;52595;51.608;7.216;2023-11-21T10:16:00;46.25;;;21.00;;
65835;SDS011;52595;51.608;7.216;2023-11-21T10:18:30;41.55;;;19.75;;
65835;SDS011;52595;51.608;7.216;2023-11-21T10:20:59;41.47;;;19.70;;
65835;SDS011;52595;51.608;7.216;2023-11-21T10:23:25;43.83;;;19.83;;
65835;SDS011;52595;51.608;7.216;2023-11-21T10:25:52;43.15;;;19.83;;
65835;SDS011;52595;51.608;7.216;2023-11-21T10:28:18;39.28;;;19.10;;
65835;SDS011;52595;51.608;7.216;2023-11-21T10:30:44;36.42;;;17.08;;
65835;SDS011;52595;51.608;7.216;2023-11-21T10:33:09;38.25;;;17.42;;
65835;SDS011;52595;51.608;7.216;2023-11-21T10:38:11;37.13;;;16.58;;
65835;SDS011;52595;51.608;7.216;2023-11-21T10:40:38;35.85;;;16.40;;
65835;SDS011;52595;51.608;7.216;2023-11-21T10:43:06;32.83;;;16.30;;
65835;SDS011;52595;51.608;7.216;2023-11-21T10:45:34;33.30;;;16.15;;
65835;SDS011;52595;51.608;7.216;2023-11-21T10:48:00;32.78;;;17.40;;
65835;SDS011;52595;51.608;7.216;2023-11-21T10:50:26;33.60;;;16.85;;
65835;SDS011;52595;51.608;7.216;2023-11-21T10:52:51;30.83;;;15.57;;
65835;SDS011;52595;51.608;7.216;2023-11-21T10:55:19;34.25;;;16.75;;
65835;SDS011;52595;51.608;7.216;2023-11-21T10:57:51;33.83;;;16.65;;
65835;SDS011;52595;51.608;7.216;2023-11-21T11:00:19;34.58;;;16.70;;
65835;SDS011;52595;51.608;7.216;2023-11-21T11:02:50;31.00;;;15.80;;
65835;SDS011;52595;51.608;7.216;2023-11-21T11:05:18;30.63;;;16.25;;
65835;SDS011;52595;51.608;7.216;2023-11-21T11:07:45;32.55;;;17.83;;
65835;SDS011;52595;51.608;7.216;2023-11-21T11:10:19;36.80;;;17.58;;
65835;SDS011;52595;51.608;7.216;2023-11-21T11:12:47;35.85;;;17.98;;
65835;SDS011;52595;51.608;7.216;2023-11-21T11:15:13;39.88;;;18.23;;
65835;SDS011;52595;51.608;7.216;2023-11-21T11:17:41;33.70;;;17.48;;
65835;SDS011;52595;51.608;7.216;2023-11-21T11:20:08;33.30;;;17.42;;
65835;SDS011;52595;51.608;7.216;2023-11-21T11:38:33;21.88;;;11.75;;
65835;SDS011;52595;51.608;7.216;2023-11-21T11:41:04;19.02;;;10.35;;
65835;SDS011;52595;51.608;7.216;2023-11-21T11:43:30;18.30;;;10.00;;
65835;SDS011;52595;51.608;7.216;2023-11-21T11:46:09;16.17;;;9.52;;
65835;SDS011;52595;51.608;7.216;2023-11-21T11:48:41;16.45;;;9.30;;
65835;SDS011;52595;51.608;7.216;2023-11-21T11:51:10;16.63;;;9.65;;
65835;SDS011;52595;51.608;7.216;2023-11-21T11:53:39;16.75;;;9.40;;
65835;SDS011;52595;51.608;7.216;2023-11-21T11:58:59;15.67;;;9.10;;
65835;SDS011;52595;51.608;7.216;2023-11-21T12:01:27;15.68;;;8.73;;
65835;SDS011;52595;51.608;7.216;2023-11-21T12:06:45;17.90;;;9.38;;
65835;SDS011;52595;51.608;7.216;2023-11-21T12:09:21;18.15;;;9.52;;
65835;SDS011;52595;51.608;7.216;2023-11-21T12:11:47;16.13;;;9.80;;
65835;SDS011;52595;51.608;7.216;2023-11-21T12:14:14;16.05;;;9.20;;
65835;SDS011;52595;51.608;7.216;2023-11-21T12:16:40;17.20;;;9.88;;
65835;SDS011;52595;51.608;7.216;2023-11-21T12:19:05;16.17;;;8.93;;
65835;SDS011;52595;51.608;7.216;2023-11-21T12:21:31;15.00;;;8.63;;
65835;SDS011;52595;51.608;7.216;2023-11-21T12:23:57;16.00;;;9.50;;
65835;SDS011;52595;51.608;7.216;2023-11-21T12:26:26;17.35;;;10.20;;
65835;SDS011;52595;51.608;7.216;2023-11-21T12:28:52;14.88;;;8.48;;
65835;SDS011;52595;51.608;7.216;2023-11-21T12:31:20;16.10;;;9.05;;
65835;SDS011;52595;51.608;7.216;2023-11-21T12:33:46;17.80;;;10.02;;
65835;SDS011;52595;51.608;7.216;2023-11-21T12:36:12;16.42;;;9.75;;
65835;SDS011;52595;51.608;7.216;2023-11-21T12:38:38;18.23;;;10.00;;
65835;SDS011;52595;51.608;7.216;2023-11-21T12:41:03;20.50;;;10.57;;
65835;SDS011;52595;51.608;7.216;2023-11-21T12:43:31;18.58;;;9.98;;
65835;SDS011;52595;51.608;7.216;2023-11-21T12:48:36;21.42;;;11.35;;
65835;SDS011;52595;51.608;7.216;2023-11-21T12:51:09;20.55;;;10.93;;
65835;SDS011;52595;51.608;7.216;2023-11-21T12:53:35;19.25;;;11.35;;
65835;SDS011;52595;51.608;7.216;2023-11-21T12:56:07;19.55;;;10.80;;
65835;SDS011;52595;51.608;7.216;2023-11-21T12:58:38;22.33;;;11.80;;
65835;SDS011;52595;51.608;7.216;2023-11-21T13:01:06;21.67;;;10.60;;
65835;SDS011;52595;51.608;7.216;2023-11-21T13:03:37;21.83;;;11.20;;
65835;SDS011;52595;51.608;7.216;2023-11-21T13:06:03;24.20;;;11.70;;
65835;SDS011;52595;51.608;7.216;2023-11-21T13:08:30;21.80;;;10.75;;
65835;SDS011;52595;51.608;7.216;2023-11-21T13:10:57;21.50;;;10.70;;
65835;SDS011;52595;51.608;7.216;2023-11-21T13:13:24;19.83;;;10.75;;
65835;SDS011;52595;51.608;7.216;2023-11-21T13:15:51;20.40;;;10.52;;
65835;SDS011;52595;51.608;7.216;2023-11-21T13:18:21;19.40;;;10.30;;
65835;SDS011;52595;51.608;7.216;2023-11-21T13:20:48;22.67;;;10.55;;
65835;SDS011;52595;51.608;7.216;2023-11-21T13:23:14;17.77;;;9.40;;
65835;SDS011;52595;51.608;7.216;2023-11-21T13:25:41;18.52;;;9.32;;
65835;SDS011;52595;51.608;7.216;2023-11-21T13:28:13;18.70;;;8.90;;
65835;SDS011;52595;51.608;7.216;2023-11-21T13:30:48;19.63;;;9.75;;
65835;SDS011;52595;51.608;7.216;2023-11-21T13:33:17;17.58;;;8.77;;
65835;SDS011;52595;51.608;7.216;2023-11-21T13:35:46;20.33;;;9.02;;
65835;SDS011;52595;51.608;7.216;2023-11-21T13:38:17;18.50;;;8.50;;
65835;SDS011;52595;51.608;7.216;2023-11-21T13:40:52;16.88;;;7.95;;
65835;SDS011;52595;51.608;7.216;2023-11-21T13:43:19;16.08;;;8.30;;
65835;SDS011;52595;51.608;7.216;2023-11-21T13:45:47;16.25;;;8.00;;
65835;SDS011;52595;51.608;7.216;2023-11-21T13:48:23;17.42;;;8.18;;
65835;SDS011;52595;51.608;7.216;2023-11-21T13:50:56;15.23;;;8.25;;
65835;SDS011;52595;51.608;7.216;2023-11-21T13:53:33;14.15;;;7.72;;
65835;SDS011;52595;51.608;7.216;2023-11-21T13:56:02;14.20;;;7.68;;
65835;SDS011;52595;51.608;7.216;2023-11-21T13:58:28;14.15;;;7.03;;
65835;SDS011;52595;51.608;7.216;2023-11-21T14:01:10;13.57;;;7.20;;
65835;SDS011;52595;51.608;7.216;2023-11-21T14:04:02;12.70;;;6.80;;
65835;SDS011;52595;51.608;7.216;2023-11-21T14:06:40;15.05;;;7.00;;
65835;SDS011;52595;51.608;7.216;2023-11-21T14:09:13;11.23;;;5.90;;
65835;SDS011;52595;51.608;7.216;2023-11-21T14:11:47;11.25;;;5.65;;
65835;SDS011;52595;51.608;7.216;2023-11-21T14:14:23;11.73;;;5.60;;
65835;SDS011;52595;51.608;7.216;2023-11-21T14:16:50;12.45;;;5.28;;
65835;SDS011;52595;51.608;7.216;2023-11-21T14:19:17;10.88;;;5.47;;
65835;SDS011;52595;51.608;7.216;2023-11-21T14:21:43;10.30;;;4.90;;
65835;SDS011;52595;51.608;7.216;2023-11-21T14:24:10;8.52;;;5.18;;
65835;SDS011;52595;51.608;7.216;2023-11-21T14:26:38;9.93;;;5.28;;
65835;SDS011;52595;51.608;7.216;2023-11-21T14:29:08;8.40;;;4.75;;
65835;SDS011;52595;51.608;7.216;2023-11-21T14:31:34;8.68;;;4.65;;
65835;SDS011;52595;51.608;7.216;2023-11-21T14:34:00;6.55;;;4.22;;
65835;SDS011;52595;51.608;7.216;2023-11-21T14:36:31;6.85;;;4.13;;
65835;SDS011;52595;51.608;7.216;2023-11-21T14:38:56;8.65;;;4.68;;
65835;SDS011;52595;51.608;7.216;2023-11-21T14:41:22;8.93;;;4.50;;
65835;SDS011;52595;51.608;7.216;2023-11-21T14:43:47;7.75;;;4.53;;
65835;SDS011;52595;51.608;7.216;2023-11-21T14:46:14;7.70;;;4.35;;
65835;SDS011;52595;51.608;7.216;2023-11-21T14:48:43;7.20;;;4.60;;
65835;SDS011;52595;51.608;7.216;2023-11-21T14:51:12;7.28;;;4.38;;